createdAt,value
2016-04-07T00:00:52.839Z,999.5
2016-04-07T00:01:52.874Z,999.49
2016-04-07T00:02:52.908Z,999.5
2016-04-07T00:03:52.942Z,999.53
2016-04-07T00:04:52.975Z,999.52
2016-04-07T00:05:53.010Z,999.54
2016-04-07T00:06:53.044Z,999.52
2016-04-07T00:07:53.078Z,999.61
2016-04-07T00:08:53.111Z,999.58
2016-04-07T00:09:53.146Z,999.54
2016-04-07T00:10:53.180Z,999.54
2016-04-07T00:11:53.214Z,999.52
2016-04-07T00:12:53.232Z,999.49
2016-04-07T00:13:53.266Z,999.5
2016-04-07T00:14:53.299Z,999.47
2016-04-07T00:15:53.357Z,999.48
2016-04-07T00:16:53.436Z,999.42
2016-04-07T00:17:53.530Z,999.41
2016-04-07T00:18:53.592Z,999.48
2016-04-07T00:19:53.670Z,999.46
2016-04-07T00:20:53.733Z,999.45
2016-04-07T00:21:53.783Z,999.43
2016-04-07T00:22:53.832Z,999.43
2016-04-07T00:23:53.881Z,999.46
2016-04-07T00:24:53.932Z,999.44
2016-04-07T00:25:53.960Z,999.42
2016-04-07T00:26:54.015Z,999.44
2016-04-07T00:27:54.039Z,999.43
2016-04-07T00:28:54.080Z,999.43
2016-04-07T00:29:54.134Z,999.4
2016-04-07T00:30:54.157Z,999.4
2016-04-07T00:31:54.193Z,999.37
2016-04-07T00:32:54.228Z,999.44
2016-04-07T00:33:54.279Z,999.43
2016-04-07T00:34:54.300Z,999.44
2016-04-07T00:35:54.335Z,999.47
2016-04-07T00:36:54.370Z,999.44
2016-04-07T00:37:54.404Z,999.41
2016-04-07T00:38:54.440Z,999.38
2016-04-07T00:39:54.458Z,999.42
2016-04-07T00:40:54.493Z,999.43
2016-04-07T00:41:54.527Z,999.43
2016-04-07T00:42:54.578Z,999.44
2016-04-07T00:43:54.612Z,999.46
2016-04-07T00:44:54.629Z,999.42
2016-04-07T00:45:54.665Z,999.41
2016-04-07T00:46:54.698Z,999.43
2016-04-07T00:47:54.731Z,999.45
2016-04-07T00:48:54.765Z,999.47
2016-04-07T00:49:54.800Z,999.47
2016-04-07T00:50:54.834Z,999.51
2016-04-07T00:51:54.867Z,999.5
2016-04-07T00:52:54.901Z,999.44
2016-04-07T00:53:54.936Z,999.47
2016-04-07T00:54:54.970Z,999.51
2016-04-07T00:55:54.988Z,999.47
2016-04-07T00:56:55.022Z,999.51
2016-04-07T00:57:55.056Z,999.52
2016-04-07T00:58:55.089Z,999.56
2016-04-07T00:59:55.124Z,999.57
2016-04-07T01:00:55.158Z,999.55
2016-04-07T01:01:55.192Z,999.54
2016-04-07T01:02:55.225Z,999.5
2016-04-07T01:03:55.260Z,999.52
2016-04-07T01:04:55.294Z,999.54
2016-04-07T01:05:55.328Z,999.53
2016-04-07T01:06:55.361Z,999.51
2016-04-07T01:07:55.396Z,999.53
2016-04-07T01:08:55.414Z,999.52
2016-04-07T01:09:55.447Z,999.53
2016-04-07T01:10:55.482Z,999.51
2016-04-07T01:11:55.516Z,999.5
2016-04-07T01:12:55.549Z,999.5
2016-04-07T01:13:55.583Z,999.44
2016-04-07T01:14:55.618Z,999.47
2016-04-07T01:15:55.651Z,999.45
2016-04-07T01:16:55.684Z,999.44
2016-04-07T01:17:55.718Z,999.43
2016-04-07T01:18:55.753Z,999.42
2016-04-07T01:19:55.771Z,999.43
2016-04-07T01:20:55.806Z,999.45
2016-04-07T01:21:55.839Z,999.43
2016-04-07T01:22:55.873Z,999.41
2016-04-07T01:23:55.906Z,999.37
2016-04-07T01:24:55.941Z,999.42
2016-04-07T01:25:55.975Z,999.39
2016-04-07T01:26:56.009Z,999.39
2016-04-07T01:27:56.042Z,999.42
2016-04-07T01:28:56.077Z,999.39
2016-04-07T01:29:56.111Z,999.4
2016-04-07T01:30:56.128Z,999.42
2016-04-07T01:31:56.163Z,999.44
2016-04-07T01:32:56.197Z,999.43
2016-04-07T01:33:56.230Z,999.44
2016-04-07T01:34:56.264Z,999.42
2016-04-07T01:35:56.299Z,999.43
2016-04-07T01:36:56.333Z,999.46
2016-04-07T01:37:56.367Z,999.45
2016-04-07T01:38:56.400Z,999.45
2016-04-07T01:39:56.435Z,999.46
2016-04-07T01:40:56.452Z,999.46
2016-04-07T01:41:56.487Z,999.46
2016-04-07T01:42:56.521Z,999.48
2016-04-07T01:43:56.555Z,999.45
2016-04-07T01:44:56.588Z,999.44
2016-04-07T01:45:56.623Z,999.39
2016-04-07T01:46:56.656Z,999.37
2016-04-07T01:47:56.690Z,999.42
2016-04-07T01:48:56.724Z,999.42
2016-04-07T01:49:56.743Z,999.41
2016-04-07T01:50:56.776Z,999.39
2016-04-07T01:51:56.810Z,999.4
2016-04-07T01:52:56.845Z,999.4
2016-04-07T01:53:56.878Z,999.39
2016-04-07T01:54:56.928Z,999.39
2016-04-07T01:55:56.946Z,999.35
2016-04-07T01:56:56.980Z,999.4
2016-04-07T01:57:57.014Z,999.35
2016-04-07T01:58:57.047Z,999.38
2016-04-07T01:59:57.081Z,999.39
2016-04-07T02:00:57.116Z,999.42
2016-04-07T02:01:57.134Z,999.42
2016-04-07T02:02:57.168Z,999.44
2016-04-07T02:03:57.202Z,999.43
2016-04-07T02:04:57.236Z,999.43
2016-04-07T02:05:57.269Z,999.41
2016-04-07T02:06:57.304Z,999.43
2016-04-07T02:07:57.338Z,999.4
2016-04-07T02:08:57.372Z,999.35
2016-04-07T02:09:57.406Z,999.35
2016-04-07T02:10:57.440Z,999.3
2016-04-07T02:11:57.457Z,999.32
2016-04-07T02:12:57.492Z,999.32
2016-04-07T02:13:57.541Z,999.32
2016-04-07T02:14:57.560Z,999.34
2016-04-07T02:15:57.594Z,999.32
2016-04-07T02:16:57.627Z,999.31
2016-04-07T02:17:57.677Z,999.29
2016-04-07T02:18:57.696Z,999.33
2016-04-07T02:19:57.729Z,999.29
2016-04-07T02:20:57.763Z,999.31
2016-04-07T02:21:57.798Z,999.32
2016-04-07T02:22:57.831Z,999.31
2016-04-07T02:23:57.850Z,999.34
2016-04-07T02:24:57.884Z,999.33
2016-04-07T02:25:57.918Z,999.33
2016-04-07T02:26:57.951Z,999.32
2016-04-07T02:27:57.986Z,999.3
2016-04-07T02:28:58.020Z,999.33
2016-04-07T02:29:58.054Z,999.37
2016-04-07T02:30:58.087Z,999.39
2016-04-07T02:31:58.121Z,999.34
2016-04-07T02:32:58.155Z,999.34
2016-04-07T02:33:58.189Z,999.32
2016-04-07T02:34:58.208Z,999.36
2016-04-07T02:35:58.242Z,999.39
2016-04-07T02:36:58.275Z,999.34
2016-04-07T02:37:58.308Z,999.4
2016-04-07T02:38:58.343Z,999.31
2016-04-07T02:39:58.377Z,999.33
2016-04-07T02:40:58.410Z,999.35
2016-04-07T02:41:58.444Z,999.38
2016-04-07T02:42:58.479Z,999.33
2016-04-07T02:43:58.513Z,999.42
2016-04-07T02:44:58.546Z,999.41
2016-04-07T02:45:58.580Z,999.41
2016-04-07T02:46:58.599Z,999.36
2016-04-07T02:47:58.633Z,999.33
2016-04-07T02:48:58.667Z,999.33
2016-04-07T02:49:58.701Z,999.31
2016-04-07T02:50:58.735Z,999.33
2016-04-07T02:51:58.768Z,999.33
2016-04-07T02:52:58.803Z,999.33
2016-04-07T02:53:58.837Z,999.37
2016-04-07T02:54:58.871Z,999.37
2016-04-07T02:55:58.904Z,999.3
2016-04-07T02:56:58.923Z,999.33
2016-04-07T02:57:58.956Z,999.33
2016-04-07T02:58:58.990Z,999.33
2016-04-07T02:59:59.025Z,999.38
2016-04-07T03:00:59.059Z,999.38
2016-04-07T03:01:59.092Z,999.34
2016-04-07T03:02:59.126Z,999.35
2016-04-07T03:03:59.161Z,999.36
2016-04-07T03:04:59.195Z,999.36
2016-04-07T03:05:59.228Z,999.37
2016-04-07T03:06:59.247Z,999.38
2016-04-07T03:07:59.281Z,999.35
2016-04-07T03:08:59.314Z,999.41
2016-04-07T03:09:59.349Z,999.43
2016-04-07T03:10:59.383Z,999.46
2016-04-07T03:11:59.417Z,999.44
2016-04-07T03:12:59.449Z,999.45
2016-04-07T03:13:59.484Z,999.44
2016-04-07T03:14:59.518Z,999.49
2016-04-07T03:15:59.552Z,999.51
2016-04-07T03:16:59.585Z,999.51
2016-04-07T03:17:59.620Z,999.5
2016-04-07T03:18:59.637Z,999.43
2016-04-07T03:19:59.688Z,999.48
2016-04-07T03:20:59.721Z,999.51
2016-04-07T03:21:59.740Z,999.5
2016-04-07T03:22:59.773Z,999.47
2016-04-07T03:23:59.807Z,999.47
2016-04-07T03:24:59.842Z,999.52
2016-04-07T03:25:59.876Z,999.51
2016-04-07T03:26:59.909Z,999.55
2016-04-07T03:27:59.943Z,999.49
2016-04-07T03:28:59.962Z,999.54
2016-04-07T03:29:59.995Z,999.56
2016-04-07T03:31:00.045Z,999.53
2016-04-07T03:32:00.079Z,999.56
2016-04-07T03:33:00.114Z,999.53
2016-04-07T03:34:00.131Z,999.52
2016-04-07T03:35:00.166Z,999.52
2016-04-07T03:36:00.200Z,999.52
2016-04-07T03:37:00.234Z,999.48
2016-04-07T03:38:00.267Z,999.54
2016-04-07T03:39:00.302Z,999.53
2016-04-07T03:40:00.336Z,999.53
2016-04-07T03:41:00.353Z,999.55
2016-04-07T03:42:00.403Z,999.55
2016-04-07T03:43:00.421Z,999.56
2016-04-07T03:44:00.456Z,999.57
2016-04-07T03:45:00.489Z,999.64
2016-04-07T03:46:00.524Z,999.57
2016-04-07T03:47:00.558Z,999.62
2016-04-07T03:48:00.590Z,999.58
2016-04-07T03:49:00.624Z,999.62
2016-04-07T03:50:00.659Z,999.62
2016-04-07T03:51:00.677Z,999.63
2016-04-07T03:52:00.726Z,999.61
2016-04-07T03:53:00.761Z,999.59
2016-04-07T03:54:00.796Z,999.59
2016-04-07T03:55:00.829Z,999.64
2016-04-07T03:56:00.847Z,999.68
2016-04-07T03:57:00.881Z,999.68
2016-04-07T03:58:00.915Z,999.63
2016-04-07T03:59:00.948Z,999.67
2016-04-07T04:00:00.983Z,999.65
2016-04-07T04:01:01.017Z,999.66
2016-04-07T04:02:01.050Z,999.68
2016-04-07T04:03:01.069Z,999.64
2016-04-07T04:04:01.103Z,999.69
2016-04-07T04:05:01.153Z,999.65
2016-04-07T04:06:01.170Z,999.73
2016-04-07T04:07:01.205Z,999.68
2016-04-07T04:08:01.239Z,999.74
2016-04-07T04:09:01.273Z,999.69
2016-04-07T04:10:01.306Z,999.78
2016-04-07T04:11:01.341Z,999.72
2016-04-07T04:12:01.375Z,999.78
2016-04-07T04:13:01.393Z,999.81
2016-04-07T04:14:01.427Z,999.79
2016-04-07T04:15:01.461Z,999.77
2016-04-07T04:16:01.494Z,999.8
2016-04-07T04:17:01.529Z,999.74
2016-04-07T04:18:01.563Z,999.74
2016-04-07T04:19:01.597Z,999.71
2016-04-07T04:20:01.630Z,999.71
2016-04-07T04:21:01.665Z,999.72
2016-04-07T04:22:01.699Z,999.7
2016-04-07T04:23:01.716Z,999.72
2016-04-07T04:24:01.782Z,999.71
2016-04-07T04:25:01.785Z,999.73
2016-04-07T04:26:01.818Z,999.72
2016-04-07T04:27:01.852Z,999.7
2016-04-07T04:28:01.887Z,999.76
2016-04-07T04:29:01.921Z,999.75
2016-04-07T04:30:01.953Z,999.75
2016-04-07T04:31:01.972Z,999.81
2016-04-07T04:32:02.022Z,999.82
2016-04-07T04:33:02.056Z,999.82
2016-04-07T04:34:02.075Z,999.81
2016-04-07T04:35:02.123Z,999.84
2016-04-07T04:36:02.142Z,999.8
2016-04-07T04:37:02.175Z,999.8
2016-04-07T04:38:02.210Z,999.79
2016-04-07T04:39:02.338Z,999.75
2016-04-07T04:40:02.278Z,999.8
2016-04-07T04:41:02.312Z,999.83
2016-04-07T04:42:02.330Z,999.84
2016-04-07T04:43:02.363Z,999.81
2016-04-07T04:44:02.397Z,999.84
2016-04-07T04:45:02.432Z,999.86
2016-04-07T04:46:02.466Z,999.85
2016-04-07T04:47:02.499Z,999.9
2016-04-07T04:48:02.533Z,999.85
2016-04-07T04:49:02.568Z,999.85
2016-04-07T04:50:02.602Z,999.88
2016-04-07T04:51:02.620Z,999.89
2016-04-07T04:52:02.654Z,999.92
2016-04-07T04:53:02.688Z,999.86
2016-04-07T04:54:02.754Z,999.87
2016-04-07T04:55:02.756Z,999.92
2016-04-07T04:56:02.790Z,999.92
2016-04-07T04:57:02.824Z,999.9
2016-04-07T04:58:02.857Z,999.91
2016-04-07T04:59:02.892Z,999.93
2016-04-07T05:00:02.909Z,999.93
2016-04-07T05:01:02.943Z,999.99
2016-04-07T05:02:02.993Z,1000.03
2016-04-07T05:03:03.012Z,999.97
2016-04-07T05:04:03.045Z,1000.04
2016-04-07T05:05:03.079Z,999.97
2016-04-07T05:06:03.114Z,999.97
2016-04-07T05:07:03.148Z,999.98
2016-04-07T05:08:03.166Z,1000
2016-04-07T05:09:03.215Z,999.98
2016-04-07T05:10:03.233Z,1000
2016-04-07T05:11:03.267Z,1000.04
2016-04-07T05:12:03.302Z,1000
2016-04-07T05:13:03.335Z,1000.07
2016-04-07T05:14:03.370Z,1000.03
2016-04-07T05:15:03.403Z,1000
2016-04-07T05:16:03.438Z,1000.01
2016-04-07T05:17:03.471Z,999.98
2016-04-07T05:18:03.505Z,1000.01
2016-04-07T05:19:03.524Z,1000.06
2016-04-07T05:20:03.557Z,1000.02
2016-04-07T05:21:03.591Z,1000.01
2016-04-07T05:22:03.625Z,1000.01
2016-04-07T05:23:03.659Z,1000.02
2016-04-07T05:24:03.771Z,999.98
2016-04-07T05:25:03.726Z,1000.05
2016-04-07T05:26:03.760Z,1000.01
2016-04-07T05:27:03.795Z,999.99
2016-04-07T05:28:03.829Z,1000.01
2016-04-07T05:29:03.863Z,999.94
2016-04-07T05:30:03.896Z,999.97
2016-04-07T05:31:03.915Z,1000
2016-04-07T05:32:03.948Z,999.97
2016-04-07T05:33:03.983Z,999.97
2016-04-07T05:34:04.017Z,999.98
2016-04-07T05:35:04.051Z,1000
2016-04-07T05:36:04.084Z,1000
2016-04-07T05:37:04.119Z,1000.02
2016-04-07T05:38:04.153Z,999.99
2016-04-07T05:39:04.187Z,999.99
2016-04-07T05:40:04.205Z,1000
2016-04-07T05:41:04.239Z,1000.01
2016-04-07T05:42:04.272Z,1000
2016-04-07T05:43:04.306Z,1000.01
2016-04-07T05:44:04.356Z,1000.03
2016-04-07T05:45:04.375Z,1000.12
2016-04-07T05:46:04.408Z,1000.1
2016-04-07T05:47:04.442Z,1000.11
2016-04-07T05:48:04.477Z,1000.09
2016-04-07T05:49:04.511Z,1000.09
2016-04-07T05:50:04.544Z,1000.12
2016-04-07T05:51:04.578Z,1000.08
2016-04-07T05:52:04.597Z,1000.12
2016-04-07T05:53:04.646Z,1000.13
2016-04-07T05:54:04.665Z,1000.21
2016-04-07T05:55:04.699Z,1000.18
2016-04-07T05:56:04.733Z,1000.2
2016-04-07T05:57:04.766Z,1000.21
2016-04-07T05:58:04.800Z,1000.22
2016-04-07T05:59:04.834Z,1000.24
2016-04-07T06:00:04.868Z,1000.25
2016-04-07T06:01:04.901Z,1000.27
2016-04-07T06:02:04.936Z,1000.24
2016-04-07T06:03:04.970Z,1000.33
2016-04-07T06:04:05.004Z,1000.31
2016-04-07T06:05:05.037Z,1000.39
2016-04-07T06:06:05.056Z,1000.37
2016-04-07T06:07:05.105Z,1000.41
2016-04-07T06:08:05.139Z,1000.42
2016-04-07T06:09:05.178Z,1000.35
2016-04-07T06:10:05.197Z,1000.4
2016-04-07T06:11:05.231Z,1000.42
2016-04-07T06:12:05.264Z,1000.43
2016-04-07T06:13:05.299Z,1000.5
2016-04-07T06:14:05.317Z,1000.47
2016-04-07T06:15:05.350Z,1000.51
2016-04-07T06:16:05.400Z,1000.44
2016-04-07T06:17:05.419Z,1000.51
2016-04-07T06:18:05.452Z,1000.49
2016-04-07T06:19:05.486Z,1000.45
2016-04-07T06:20:05.521Z,1000.52
2016-04-07T06:21:05.555Z,1000.47
2016-04-07T06:22:05.588Z,1000.48
2016-04-07T06:23:05.622Z,1000.48
2016-04-07T06:24:05.687Z,1000.45
2016-04-07T06:25:05.690Z,1000.52
2016-04-07T06:26:05.723Z,1000.5
2016-04-07T06:27:05.757Z,1000.54
2016-04-07T06:28:05.792Z,1000.52
2016-04-07T06:29:05.810Z,1000.46
2016-04-07T06:30:05.859Z,1000.56
2016-04-07T06:31:05.878Z,1000.52
2016-04-07T06:32:05.912Z,1000.49
2016-04-07T06:33:05.945Z,1000.59
2016-04-07T06:34:05.980Z,1000.59
2016-04-07T06:35:06.014Z,1000.6
2016-04-07T06:36:06.048Z,1000.64
2016-04-07T06:37:06.081Z,1000.66
2016-04-07T06:38:06.116Z,1000.67
2016-04-07T06:39:06.149Z,1000.7
2016-04-07T06:40:06.184Z,1000.68
2016-04-07T06:41:06.217Z,1000.69
2016-04-07T06:42:06.252Z,1000.67
2016-04-07T06:43:06.286Z,1000.7
2016-04-07T06:44:06.320Z,1000.66
2016-04-07T06:45:06.353Z,1000.73
2016-04-07T06:46:06.387Z,1000.67
2016-04-07T06:47:06.405Z,1000.7
2016-04-07T06:48:06.439Z,1000.75
2016-04-07T06:49:06.474Z,1000.77
2016-04-07T06:50:06.508Z,1000.72
2016-04-07T06:51:06.541Z,1000.72
2016-04-07T06:52:06.575Z,1000.66
2016-04-07T06:53:06.609Z,1000.65
2016-04-07T06:54:06.643Z,1000.71
2016-04-07T06:55:06.676Z,1000.74
2016-04-07T06:56:06.710Z,1000.68
2016-04-07T06:57:06.745Z,1000.68
2016-04-07T06:58:06.763Z,1000.7
2016-04-07T06:59:06.813Z,1000.71
2016-04-07T07:00:06.846Z,1000.71
2016-04-07T07:01:06.881Z,1000.77
2016-04-07T07:02:06.898Z,1000.72
2016-04-07T07:03:06.933Z,1000.73
2016-04-07T07:04:06.967Z,1000.73
2016-04-07T07:05:07.001Z,1000.72
2016-04-07T07:06:07.035Z,1000.71
2016-04-07T07:07:07.069Z,1000.77
2016-04-07T07:08:07.103Z,1000.72
2016-04-07T07:09:07.153Z,1000.78
2016-04-07T07:10:07.170Z,1000.82
2016-04-07T07:11:07.205Z,1000.83
2016-04-07T07:12:07.238Z,1000.8
2016-04-07T07:13:07.272Z,1000.84
2016-04-07T07:14:07.384Z,1000.76
2016-04-07T07:15:07.341Z,1000.75
2016-04-07T07:16:07.375Z,1000.81
2016-04-07T07:17:07.455Z,1000.83
2016-04-07T07:18:07.442Z,1000.78
2016-04-07T07:19:07.476Z,1000.84
2016-04-07T07:20:07.510Z,1000.79
2016-04-07T07:21:07.528Z,1000.83
2016-04-07T07:22:07.577Z,1000.87
2016-04-07T07:23:07.612Z,1000.86
2016-04-07T07:24:07.629Z,1000.85
2016-04-07T07:25:07.663Z,1000.84
2016-04-07T07:26:07.698Z,1000.9
2016-04-07T07:27:07.732Z,1000.88
2016-04-07T07:28:07.766Z,1000.94
2016-04-07T07:29:07.799Z,1000.93
2016-04-07T07:30:07.834Z,1000.97
2016-04-07T07:31:07.867Z,1000.99
2016-04-07T07:32:07.902Z,1000.94
2016-04-07T07:33:07.941Z,1001.02
2016-04-07T07:34:07.974Z,1000.97
2016-04-07T07:35:07.993Z,1001.05
2016-04-07T07:36:08.043Z,1000.93
2016-04-07T07:37:08.062Z,1001.01
2016-04-07T07:38:08.096Z,1001.03
2016-04-07T07:39:08.145Z,1001.02
2016-04-07T07:40:08.168Z,1001.08
2016-04-07T07:41:08.202Z,1001.08
2016-04-07T07:42:08.236Z,1001.1
2016-04-07T07:43:08.270Z,1001.09
2016-04-07T07:44:08.303Z,1001.06
2016-04-07T07:45:08.338Z,1001.09
2016-04-07T07:46:08.403Z,1001.09
2016-04-07T07:47:08.406Z,1001.08
2016-04-07T07:48:08.440Z,1001.06
2016-04-07T07:49:08.474Z,1001.09
2016-04-07T07:50:08.508Z,1001.19
2016-04-07T07:51:08.541Z,1001.14
2016-04-07T07:52:08.575Z,1001.13
2016-04-07T07:53:08.609Z,1001.12
2016-04-07T07:54:08.643Z,1001.13
2016-04-07T07:55:08.677Z,1001.16
2016-04-07T07:56:08.710Z,1001.16
2016-04-07T07:57:08.745Z,1001.15
2016-04-07T07:58:08.779Z,1001.12
2016-04-07T07:59:08.813Z,1001.11
2016-04-07T08:00:08.847Z,1001.11
2016-04-07T08:01:08.881Z,1001.17
2016-04-07T08:02:08.915Z,1001.18
2016-04-07T08:03:08.949Z,1001.21
2016-04-07T08:04:08.982Z,1001.13
2016-04-07T08:05:09.017Z,1001.15
2016-04-07T08:06:09.050Z,1001.18
2016-04-07T08:07:09.084Z,1001.2
2016-04-07T08:08:09.118Z,1001.17
2016-04-07T08:09:09.153Z,1001.21
2016-04-07T08:10:09.187Z,1001.16
2016-04-07T08:11:09.220Z,1001.16
2016-04-07T08:12:09.254Z,1001.16
2016-04-07T08:13:09.288Z,1001.22
2016-04-07T08:14:09.322Z,1001.16
2016-04-07T08:15:09.356Z,1001.18
2016-04-07T08:16:09.390Z,1001.29
2016-04-07T08:17:09.425Z,1001.25
2016-04-07T08:18:09.458Z,1001.24
2016-04-07T08:19:09.492Z,1001.24
2016-04-07T08:20:09.525Z,1001.22
2016-04-07T08:21:09.560Z,1001.22
2016-04-07T08:22:09.594Z,1001.2
2016-04-07T08:23:09.627Z,1001.15
2016-04-07T08:24:09.661Z,1001.22
2016-04-07T08:25:09.695Z,1001.2
2016-04-07T08:26:09.729Z,1001.2
2016-04-07T08:27:09.763Z,1001.27
2016-04-07T08:28:09.797Z,1001.35
2016-04-07T08:29:09.832Z,1001.15
2016-04-07T08:30:09.881Z,1001.36
2016-04-07T08:31:09.915Z,1001.28
2016-04-07T08:32:09.949Z,1001.33
2016-04-07T08:33:09.982Z,1001.31
2016-04-07T08:34:10.016Z,1001.29
2016-04-07T08:35:10.065Z,1001.31
2016-04-07T08:36:10.100Z,1001.27
2016-04-07T08:37:10.120Z,1001.3
2016-04-07T08:38:10.153Z,1001.26
2016-04-07T08:39:10.188Z,1001.27
2016-04-07T08:40:10.252Z,1001.34
2016-04-07T08:41:10.255Z,1001.37
2016-04-07T08:42:10.288Z,1001.33
2016-04-07T08:43:10.323Z,1001.46
2016-04-07T08:44:10.357Z,1001.36
2016-04-07T08:45:10.391Z,1001.47
2016-04-07T08:46:10.425Z,1001.53
2016-04-07T08:47:10.474Z,1001.37
2016-04-07T08:48:10.493Z,1001.47
2016-04-07T08:49:10.542Z,1001.42
2016-04-07T08:50:10.576Z,1001.47
2016-04-07T08:51:10.609Z,1001.45
2016-04-07T08:52:10.628Z,1001.51
2016-04-07T08:53:10.678Z,1001.46
2016-04-07T08:54:10.712Z,1001.51
2016-04-07T08:55:10.745Z,1001.47
2016-04-07T08:56:10.779Z,1001.48
2016-04-07T08:57:10.814Z,1001.47
2016-04-07T08:58:10.847Z,1001.43
2016-04-07T08:59:10.897Z,1001.45
2016-04-07T09:00:10.915Z,1001.47
2016-04-07T09:01:10.950Z,1001.48
2016-04-07T09:02:10.984Z,1001.52
2016-04-07T09:03:11.033Z,1001.37
2016-04-07T09:04:11.067Z,1001.48
2016-04-07T09:05:11.085Z,1001.4
2016-04-07T09:06:11.119Z,1001.5
2016-04-07T09:07:12.433Z,1001.36
2016-04-07T09:08:11.186Z,1001.5
2016-04-07T09:09:11.236Z,1001.48
2016-04-07T09:10:11.271Z,1001.54
2016-04-07T09:11:11.304Z,1001.57
2016-04-07T09:12:11.339Z,1001.57
2016-04-07T09:13:11.372Z,1001.57
2016-04-07T09:14:11.407Z,1001.39
2016-04-07T09:15:11.455Z,1001.45
2016-04-07T09:16:11.490Z,1001.44
2016-04-07T09:17:11.524Z,1001.5
2016-04-07T09:18:11.557Z,1001.42
2016-04-07T09:19:11.607Z,1001.4
2016-04-07T09:20:11.640Z,1001.42
2016-04-07T09:21:11.676Z,1001.43
2016-04-07T09:22:11.733Z,1001.4
2016-04-07T09:23:11.819Z,1001.35
2016-04-07T09:24:11.889Z,1001.45
2016-04-07T09:25:11.959Z,1001.54
2016-04-07T09:26:12.029Z,1001.41
2016-04-07T09:27:12.100Z,1001.45
2016-04-07T09:28:12.133Z,1001.51
2016-04-07T09:29:12.195Z,1001.54
2016-04-07T09:30:12.242Z,1001.52
2016-04-07T09:31:12.289Z,1001.49
2016-04-07T09:32:12.331Z,1001.51
2016-04-07T09:33:12.384Z,1001.49
2016-04-07T09:34:12.423Z,1001.43
2016-04-07T09:35:12.461Z,1001.52
2016-04-07T09:36:12.500Z,1001.58
2016-04-07T09:37:12.536Z,1001.54
2016-04-07T09:38:12.573Z,1001.46
2016-04-07T09:39:12.609Z,1001.56
2016-04-07T09:40:12.645Z,1001.5
2016-04-07T09:41:12.696Z,1001.54
2016-04-07T09:42:12.716Z,1001.51
2016-04-07T09:43:12.766Z,1001.43
2016-04-07T09:44:12.801Z,1001.55
2016-04-07T09:45:12.835Z,1001.6
2016-04-07T09:46:12.869Z,1001.57
2016-04-07T09:47:12.904Z,1001.54
2016-04-07T09:48:12.953Z,1001.57
2016-04-07T09:49:12.972Z,1001.58
2016-04-07T09:50:13.006Z,1001.59
2016-04-07T09:51:13.055Z,1001.56
2016-04-07T09:52:13.089Z,1001.52
2016-04-07T09:53:13.123Z,1001.42
2016-04-07T09:54:13.157Z,1001.47
2016-04-07T09:55:13.191Z,1001.44
2016-04-07T09:56:13.225Z,1001.45
2016-04-07T09:57:13.259Z,1001.49
2016-04-07T09:58:13.293Z,1001.52
2016-04-07T09:59:13.327Z,1001.59
2016-04-07T10:00:13.360Z,1001.57
2016-04-07T10:01:13.395Z,1001.54
2016-04-07T10:02:13.428Z,1001.6
2016-04-07T10:03:13.462Z,1001.62
2016-04-07T10:04:13.496Z,1001.51
2016-04-07T10:05:13.531Z,1001.64
2016-04-07T10:06:13.581Z,1001.5
2016-04-07T10:07:13.615Z,1001.5
2016-04-07T10:08:13.647Z,1001.47
2016-04-07T10:09:13.681Z,1001.52
2016-04-07T10:10:13.716Z,1001.5
2016-04-07T10:11:13.750Z,1001.49
2016-04-07T10:12:13.783Z,1001.48
2016-04-07T10:13:13.817Z,1001.6
2016-04-07T10:14:13.867Z,1001.53
2016-04-07T10:15:13.885Z,1001.55
2016-04-07T10:16:13.920Z,1001.54
2016-04-07T10:17:13.969Z,1001.57
2016-04-07T10:18:14.003Z,1001.58
2016-04-07T10:19:14.037Z,1001.53
2016-04-07T10:20:14.071Z,1001.54
2016-04-07T10:21:14.105Z,1001.49
2016-04-07T10:22:14.138Z,1001.55
2016-04-07T10:23:14.173Z,1001.53
2016-04-07T10:24:14.207Z,1001.51
2016-04-07T10:25:14.241Z,1001.59
2016-04-07T10:26:14.275Z,1001.6
2016-04-07T10:27:14.324Z,1001.49
2016-04-07T10:28:14.343Z,1001.56
2016-04-07T10:29:14.376Z,1001.66
2016-04-07T10:30:14.426Z,1001.59
2016-04-07T10:31:14.459Z,1001.65
2016-04-07T10:32:14.493Z,1001.61
2016-04-07T10:33:14.528Z,1001.67
2016-04-07T10:34:14.562Z,1001.54
2016-04-07T10:35:14.612Z,1001.68
2016-04-07T10:36:14.629Z,1001.63
2016-04-07T10:37:14.664Z,1001.69
2016-04-07T10:38:14.697Z,1001.65
2016-04-07T10:39:14.731Z,1001.65
2016-04-07T10:40:14.780Z,1001.65
2016-04-07T10:41:14.799Z,1001.57
2016-04-07T10:42:14.848Z,1001.62
2016-04-07T10:43:14.883Z,1001.55
2016-04-07T10:44:14.933Z,1001.58
2016-04-07T10:45:14.951Z,1001.55
2016-04-07T10:46:14.984Z,1001.71
2016-04-07T10:47:15.019Z,1001.63
2016-04-07T10:48:15.053Z,1001.66
2016-04-07T10:49:15.086Z,1001.66
2016-04-07T10:50:15.120Z,1001.64
2016-04-07T10:51:15.155Z,1001.66
2016-04-07T10:52:15.189Z,1001.59
2016-04-07T10:53:15.222Z,1001.7
2016-04-07T10:54:15.256Z,1001.58
2016-04-07T10:55:15.290Z,1001.63
2016-04-07T10:56:15.340Z,1001.64
2016-04-07T10:57:15.374Z,1001.64
2016-04-07T10:58:15.391Z,1001.54
2016-04-07T10:59:15.441Z,1001.63
2016-04-07T11:00:15.475Z,1001.64
2016-04-07T11:01:15.509Z,1001.56
2016-04-07T11:02:15.543Z,1001.63
2016-04-07T11:03:15.577Z,1001.62
2016-04-07T11:04:15.612Z,1001.62
2016-04-07T11:05:15.645Z,1001.61
2016-04-07T11:06:15.679Z,1001.58
2016-04-07T11:07:15.712Z,1001.63
2016-04-07T11:08:15.747Z,1001.66
2016-04-07T11:09:15.780Z,1001.64
2016-04-07T11:10:15.814Z,1001.69
2016-04-07T11:11:15.864Z,1001.66
2016-04-07T11:12:15.883Z,1001.7
2016-04-07T11:13:15.932Z,1001.64
2016-04-07T11:14:15.967Z,1001.68
2016-04-07T11:15:16.000Z,1001.66
2016-04-07T11:16:16.034Z,1001.64
2016-04-07T11:17:16.067Z,1001.65
2016-04-07T11:18:16.117Z,1001.65
2016-04-07T11:19:16.152Z,1001.69
2016-04-07T11:20:16.186Z,1001.67
2016-04-07T11:21:16.220Z,1001.75
2016-04-07T11:22:16.238Z,1001.71
2016-04-07T11:23:16.288Z,1001.72
2016-04-07T11:24:16.321Z,1001.76
2016-04-07T11:25:16.355Z,1001.75
2016-04-07T11:26:16.388Z,1001.73
2016-04-07T11:27:16.423Z,1001.82
2016-04-07T11:28:16.472Z,1001.79
2016-04-07T11:29:16.491Z,1001.76
2016-04-07T11:30:16.525Z,1001.8
2016-04-07T11:31:16.559Z,1001.81
2016-04-07T11:32:16.608Z,1001.74
2016-04-07T11:33:16.643Z,1001.92
2016-04-07T11:34:16.676Z,1001.85
2016-04-07T11:35:16.710Z,1001.84
2016-04-07T11:36:16.744Z,1001.87
2016-04-07T11:37:16.793Z,1001.87
2016-04-07T11:38:16.812Z,1001.86
2016-04-07T11:39:16.862Z,1001.84
2016-04-07T11:40:16.896Z,1001.86
2016-04-07T11:41:16.929Z,1001.81
2016-04-07T11:42:16.964Z,1001.85
2016-04-07T11:43:16.998Z,1001.88
2016-04-07T11:44:17.031Z,1001.87
2016-04-07T11:45:17.065Z,1001.93
2016-04-07T11:46:17.100Z,1001.84
2016-04-07T11:47:17.133Z,1001.8
2016-04-07T11:48:17.183Z,1001.87
2016-04-07T11:49:17.217Z,1001.77
2016-04-07T11:50:17.235Z,1001.92
2016-04-07T11:51:17.284Z,1001.92
2016-04-07T11:52:17.319Z,1001.84
2016-04-07T11:53:17.352Z,1001.84
2016-04-07T11:54:17.386Z,1001.86
2016-04-07T11:55:17.436Z,1001.85
2016-04-07T11:56:17.455Z,1001.83
2016-04-07T11:57:17.504Z,1001.83
2016-04-07T11:58:17.522Z,1001.77
2016-04-07T11:59:17.572Z,1001.8
2016-04-07T12:00:17.605Z,1001.82
2016-04-07T12:01:17.640Z,1001.84
2016-04-07T12:02:17.689Z,1001.8
2016-04-07T12:03:17.707Z,1001.85
2016-04-07T12:04:17.741Z,1001.88
2016-04-07T12:05:17.776Z,1001.8
2016-04-07T12:06:17.809Z,1001.79
2016-04-07T12:07:17.843Z,1001.77
2016-04-07T12:08:17.893Z,1001.73
2016-04-07T12:09:17.926Z,1001.75
2016-04-07T12:10:17.960Z,1001.76
2016-04-07T12:11:17.994Z,1001.68
2016-04-07T12:12:18.028Z,1001.73
2016-04-07T12:13:18.062Z,1001.81
2016-04-07T12:14:18.096Z,1001.8
2016-04-07T12:15:18.131Z,1001.77
2016-04-07T12:16:18.164Z,1001.69
2016-04-07T12:17:18.198Z,1001.7
2016-04-07T12:18:18.247Z,1001.76
2016-04-07T12:19:18.281Z,1001.74